Main page
METAR-TAF:

METAR-TAF

Airports :

León Airport

León, Spain

latitude: 42-35N, longitude: 005-39W, elevation: 926 m

Current weather observation

The report was made 34 minutes ago, at 05:30 UTC
Wind 4 kt from the North/Northwest
Temperature 12°C
Humidity 76%
Pressure 1015 hPa
Visibility 10 km or more
no clouds below 1500 m and no cumulonimbus

METAR: LELN 130530Z AUTO 33004KT CAVOK 12/08 Q1015

Time: 08:04 (06:04 UTC)

Forecast

The report was made 4 hours and 4 minutes ago, at 02:00 UTC
Forecast valid from 13 at 03 UTC to 14 at 03 UTC
Wind 5 kt from variable directions
Visibility 10 km or more
no clouds below 1500 m and no cumulonimbus
Probability 40% :
Temporary
from 13 at 10 UTC to 13 at 18 UTC
Wind 15 kt from the South/Southwest with gusts up to 30 kt
Few clouds at a height of 4500 ft, Towering cumulus.

TAF: LELN 130200Z 1303/1403 VRB05KT CAVOK TX31/1316Z TN16/1305Z PROB40 TEMPO 1310/1318 21015G30KT FEW045TCU

Weather observations and forecasts of more than 4000 airports (METAR and TAF reports).

The available stations are represented by yellow and red dots on the map.

Hover mouse over dot to see the name of the station.

Then click to see weather observations and forecasts.

To change the map : click on the green buttons with a black cross to zoom in, on the green button with a dash to zoom out, or on the green arrows for adjacent maps.


METAR-TAF: